createdAt,value
2023-09-17T00:00:18.151Z,67.700000
2023-09-17T00:05:18.037Z,67.700000
2023-09-17T00:10:18.410Z,67.600000
2023-09-17T00:15:18.222Z,67.700000
2023-09-17T00:20:18.111Z,67.600000
2023-09-17T00:25:18.108Z,67.500000
2023-09-17T00:30:18.264Z,67.500000
2023-09-17T00:35:18.134Z,67.500000
2023-09-17T04:30:18.024Z,65.000000
2023-09-17T04:35:17.809Z,64.900000
2023-09-17T04:40:17.660Z,64.900000
2023-09-17T04:45:17.702Z,64.900000
2023-09-17T04:50:18.011Z,64.900000
2023-09-17T04:55:17.717Z,64.900000
2023-09-17T05:00:17.728Z,64.800000
2023-09-17T05:05:17.698Z,64.800000
2023-09-17T05:10:17.830Z,64.800000
2023-09-17T05:15:17.732Z,64.700000
2023-09-17T05:20:17.658Z,64.700000
2023-09-17T05:25:17.677Z,64.700000
2023-09-17T05:30:17.700Z,64.600000
2023-09-17T05:35:17.677Z,64.600000
2023-09-17T05:40:18.134Z,64.700000
2023-09-17T05:45:18.401Z,64.600000
2023-09-17T05:50:17.753Z,64.500000
2023-09-17T05:55:17.747Z,64.300000
2023-09-17T06:00:18.877Z,64.300000
2023-09-17T06:05:17.822Z,64.300000
2023-09-17T06:10:17.916Z,64.200000
2023-09-17T06:15:17.743Z,64.100000
2023-09-17T06:20:18.045Z,64.100000
2023-09-17T06:25:17.694Z,64.100000
2023-09-17T06:30:17.988Z,64.100000
2023-09-17T06:35:17.790Z,64.000000
2023-09-17T06:40:17.959Z,63.800000
2023-09-17T06:45:17.878Z,63.700000
2023-09-17T06:50:18.307Z,63.700000
2023-09-17T06:55:18.003Z,63.800000
2023-09-17T07:00:18.404Z,63.700000
2023-09-17T07:05:18.057Z,63.600000
2023-09-17T07:10:17.972Z,63.500000
2023-09-17T07:15:17.940Z,63.300000
2023-09-17T07:20:17.923Z,63.100000
2023-09-17T07:25:18.424Z,62.900000
2023-09-17T07:30:18.158Z,62.800000
2023-09-17T07:35:18.071Z,62.800000
2023-09-17T07:40:20.078Z,62.900000
2023-09-17T07:45:18.048Z,62.900000
2023-09-17T07:50:18.029Z,62.700000
2023-09-17T07:55:18.023Z,62.400000
2023-09-17T08:00:19.927Z,62.300000
2023-09-17T08:05:18.141Z,62.200000
2023-09-17T08:10:18.137Z,62.100000
2023-09-17T08:15:18.459Z,61.900000
2023-09-17T08:20:18.027Z,61.700000
2023-09-17T08:25:18.080Z,61.600000
2023-09-17T08:30:18.198Z,61.500000
2023-09-17T08:35:18.272Z,61.400000
2023-09-17T08:40:18.191Z,61.500000
2023-09-17T08:45:18.341Z,61.400000
2023-09-17T08:50:18.331Z,61.400000
2023-09-17T08:55:18.153Z,61.300000
2023-09-17T09:00:16.488Z,61.300000
2023-09-17T09:05:18.208Z,61.100000
2023-09-17T09:10:18.645Z,61.100000
2023-09-17T09:15:18.260Z,61.000000
2023-09-17T09:20:18.198Z,60.900000
2023-09-17T09:25:18.257Z,60.700000
2023-09-17T09:30:18.446Z,60.600000
2023-09-17T09:35:18.184Z,60.400000
2023-09-17T09:40:18.244Z,60.300000
2023-09-17T09:45:18.421Z,60.100000
2023-09-17T09:50:18.294Z,60.100000
2023-09-17T09:55:18.184Z,60.000000
2023-09-17T10:00:19.442Z,59.700000
2023-09-17T10:05:18.243Z,59.600000
2023-09-17T10:10:18.234Z,59.600000
2023-09-17T10:15:18.310Z,59.500000
2023-09-17T10:20:16.702Z,59.500000
2023-09-17T10:25:17.466Z,59.300000
2023-09-17T10:30:16.536Z,59.100000
2023-09-17T10:35:16.585Z,59.100000
2023-09-17T10:40:16.497Z,59.200000
2023-09-17T10:45:16.756Z,59.400000
2023-09-17T10:50:16.369Z,59.400000
2023-09-17T10:55:16.508Z,59.500000
2023-09-17T11:00:16.508Z,59.700000
2023-09-17T11:05:16.238Z,59.700000
2023-09-17T11:10:29.627Z,59.900000
2023-09-17T11:15:16.369Z,60.100000
2023-09-17T11:20:16.469Z,60.200000
2023-09-17T11:25:16.359Z,60.300000
2023-09-17T11:30:16.829Z,60.400000
2023-09-17T11:35:16.713Z,60.700000
2023-09-17T11:40:16.432Z,60.700000
2023-09-17T11:45:16.553Z,60.900000
2023-09-17T11:50:16.492Z,61.200000
2023-09-17T11:55:16.453Z,61.500000
2023-09-17T12:00:17.789Z,61.800000
2023-09-17T12:05:16.550Z,62.200000
2023-09-17T12:10:16.543Z,62.600000
2023-09-17T12:15:16.502Z,63.100000
2023-09-17T12:20:16.640Z,63.500000
2023-09-17T12:25:16.546Z,64.000000
2023-09-17T12:30:16.714Z,64.300000
2023-09-17T12:35:16.723Z,64.800000
2023-09-17T12:40:16.785Z,65.000000
2023-09-17T12:45:16.548Z,65.200000
2023-09-17T12:50:16.612Z,65.300000
2023-09-17T12:55:16.513Z,65.600000
2023-09-17T13:00:16.853Z,65.800000
2023-09-17T13:05:16.642Z,65.900000
2023-09-17T13:10:16.750Z,66.400000
2023-09-17T13:15:16.808Z,66.600000
2023-09-17T13:20:17.046Z,66.800000
2023-09-17T13:25:16.641Z,67.100000
2023-09-17T13:30:16.935Z,67.600000
2023-09-17T13:35:16.881Z,67.800000
2023-09-17T13:40:17.369Z,68.200000
2023-09-17T13:45:16.724Z,68.800000
2023-09-17T13:50:16.989Z,69.000000
2023-09-17T13:55:16.643Z,69.500000
2023-09-17T14:00:17.757Z,69.800000
2023-09-17T14:05:16.952Z,70.200000
2023-09-17T14:10:19.349Z,70.600000
2023-09-17T14:15:16.877Z,71.000000
2023-09-17T14:20:17.262Z,71.200000
2023-09-17T14:25:17.106Z,71.600000
2023-09-17T14:30:17.232Z,71.700000
2023-09-17T14:35:16.835Z,71.700000
2023-09-17T14:40:17.151Z,72.000000
2023-09-17T14:45:17.055Z,72.500000
2023-09-17T14:50:16.882Z,72.100000
2023-09-17T14:55:16.778Z,72.200000
2023-09-17T15:00:17.226Z,72.700000
2023-09-17T15:05:16.900Z,72.800000
2023-09-17T15:10:16.918Z,73.100000
2023-09-17T15:15:16.932Z,73.400000
2023-09-17T15:20:18.476Z,73.900000
2023-09-17T15:25:17.039Z,74.400000
2023-09-17T15:30:17.257Z,74.700000
2023-09-17T15:35:19.753Z,74.800000
2023-09-17T15:40:16.937Z,75.100000
2023-09-17T15:45:17.290Z,75.400000
2023-09-17T15:50:17.082Z,75.600000
2023-09-17T15:55:17.026Z,75.900000
2023-09-17T16:00:17.899Z,76.000000
2023-09-17T16:05:16.985Z,75.700000
2023-09-17T16:10:17.130Z,76.100000
2023-09-17T16:15:16.990Z,76.600000
2023-09-17T16:20:17.382Z,76.900000
2023-09-17T16:25:16.988Z,77.100000
2023-09-17T16:30:17.379Z,77.200000
2023-09-17T16:35:17.326Z,77.600000
2023-09-17T16:40:17.298Z,77.900000
2023-09-17T16:45:17.324Z,78.100000
2023-09-17T16:50:17.103Z,78.100000
2023-09-17T16:55:17.057Z,78.000000
2023-09-17T17:00:17.865Z,76.000000
2023-09-17T17:05:17.071Z,73.800000
2023-09-17T17:10:17.058Z,73.100000
2023-09-17T17:15:17.160Z,72.800000
2023-09-17T17:20:17.659Z,72.500000
2023-09-17T17:25:17.073Z,72.400000
2023-09-17T17:30:17.481Z,72.300000
2023-09-17T17:35:17.411Z,72.100000
2023-09-17T17:40:17.688Z,71.900000
2023-09-17T17:45:17.418Z,71.800000
2023-09-17T17:50:17.270Z,71.800000
2023-09-17T17:55:17.247Z,71.700000
2023-09-17T18:00:18.331Z,71.300000
2023-09-17T18:05:17.265Z,71.300000
2023-09-17T18:10:17.333Z,71.300000
2023-09-17T18:15:17.839Z,71.500000
2023-09-17T18:20:17.264Z,71.500000
2023-09-17T18:25:17.250Z,71.400000
2023-09-17T18:30:17.691Z,71.400000
2023-09-17T18:35:17.330Z,71.300000
2023-09-17T18:40:17.324Z,71.500000
2023-09-17T18:45:17.650Z,71.500000
2023-09-17T18:50:17.606Z,71.700000
2023-09-17T18:55:17.303Z,71.700000
2023-09-17T19:00:17.474Z,71.700000
2023-09-17T19:05:17.442Z,71.600000
2023-09-17T19:10:17.501Z,71.600000
2023-09-17T19:15:17.411Z,71.700000
2023-09-17T19:20:17.671Z,71.700000
2023-09-17T19:25:17.494Z,71.600000
2023-09-17T19:30:18.433Z,71.500000
2023-09-17T19:35:17.606Z,71.500000
2023-09-17T19:40:17.737Z,71.500000
2023-09-17T19:45:17.590Z,71.500000
2023-09-17T19:50:18.063Z,71.500000
2023-09-17T19:55:17.703Z,71.400000
2023-09-17T20:00:18.734Z,71.300000
2023-09-17T20:05:17.583Z,71.400000
2023-09-17T20:10:17.602Z,71.400000
2023-09-17T20:15:17.731Z,71.500000
2023-09-17T20:20:17.734Z,71.500000
2023-09-17T20:25:17.575Z,71.500000
2023-09-17T20:30:17.927Z,71.500000
2023-09-17T20:35:17.702Z,71.600000
2023-09-17T20:40:17.603Z,71.600000
2023-09-17T20:45:18.493Z,71.600000
2023-09-17T20:50:17.939Z,71.700000
2023-09-17T20:55:18.032Z,71.300000
2023-09-17T21:00:18.280Z,71.100000
2023-09-17T21:05:18.123Z,70.900000
2023-09-17T21:10:17.671Z,70.800000
2023-09-17T21:15:17.900Z,70.800000
2023-09-17T21:20:17.733Z,70.800000
2023-09-17T21:25:17.707Z,70.800000
2023-09-17T21:30:18.086Z,70.800000
2023-09-17T21:35:17.828Z,70.800000
2023-09-17T21:40:17.985Z,70.700000
2023-09-17T21:45:17.931Z,70.500000
2023-09-17T21:50:17.777Z,70.400000
2023-09-17T21:55:17.798Z,70.300000
2023-09-17T22:00:19.635Z,70.200000
2023-09-17T22:05:18.328Z,70.100000
2023-09-17T22:10:18.154Z,69.800000
2023-09-17T22:15:18.294Z,69.400000
2023-09-17T22:20:17.900Z,69.200000
2023-09-17T22:25:17.701Z,69.000000
2023-09-17T22:30:17.867Z,68.900000
2023-09-17T22:35:17.840Z,68.600000
2023-09-17T22:40:17.874Z,68.300000
2023-09-17T22:45:18.172Z,68.100000
2023-09-17T22:50:17.985Z,67.900000
2023-09-17T22:55:18.111Z,67.900000
2023-09-17T23:00:17.918Z,68.100000
2023-09-17T23:05:18.367Z,68.200000
2023-09-17T23:10:17.962Z,68.400000
2023-09-17T23:15:18.432Z,68.500000
2023-09-17T23:20:18.118Z,68.200000
2023-09-17T23:25:17.942Z,68.200000
2023-09-17T23:30:17.963Z,68.600000
2023-09-17T23:35:17.983Z,69.000000
2023-09-17T23:40:17.958Z,69.300000
2023-09-17T23:45:18.089Z,69.400000
2023-09-17T23:50:18.065Z,69.500000
2023-09-17T23:55:18.043Z,69.700000
